sensor_id;sensor_type;location;lat;lon;timestamp;temperature;humidity
54461;DHT22;69977;49.414;11.010;2023-11-18T00:01:09;4.80;99.90
54461;DHT22;69977;49.414;11.010;2023-11-18T00:03:35;4.80;99.90
54461;DHT22;69977;49.414;11.010;2023-11-18T00:06:01;4.80;99.90
54461;DHT22;69977;49.414;11.010;2023-11-18T00:08:27;4.70;99.90
54461;DHT22;69977;49.414;11.010;2023-11-18T00:10:52;4.80;99.90
54461;DHT22;69977;49.414;11.010;2023-11-18T00:13:19;4.90;99.90
54461;DHT22;69977;49.414;11.010;2023-11-18T00:15:45;5.10;99.90
54461;DHT22;69977;49.414;11.010;2023-11-18T00:18:12;5.30;99.90
54461;DHT22;69977;49.414;11.010;2023-11-18T00:20:38;5.20;99.90
54461;DHT22;69977;49.414;11.010;2023-11-18T00:23:04;5.00;99.90
54461;DHT22;69977;49.414;11.010;2023-11-18T00:25:32;5.00;99.90
54461;DHT22;69977;49.414;11.010;2023-11-18T00:27:59;5.00;99.90
54461;DHT22;69977;49.414;11.010;2023-11-18T00:30:25;5.00;99.90
54461;DHT22;69977;49.414;11.010;2023-11-18T00:32:51;5.00;99.90
54461;DHT22;69977;49.414;11.010;2023-11-18T00:35:16;4.90;99.90
54461;DHT22;69977;49.414;11.010;2023-11-18T00:37:43;4.90;99.90
54461;DHT22;69977;49.414;11.010;2023-11-18T00:40:09;4.80;99.90
54461;DHT22;69977;49.414;11.010;2023-11-18T00:42:37;4.80;99.90
54461;DHT22;69977;49.414;11.010;2023-11-18T00:45:05;4.80;99.90
54461;DHT22;69977;49.414;11.010;2023-11-18T00:47:31;4.70;99.90
54461;DHT22;69977;49.414;11.010;2023-11-18T00:49:56;4.80;99.90
54461;DHT22;69977;49.414;11.010;2023-11-18T00:52:23;4.80;99.90
54461;DHT22;69977;49.414;11.010;2023-11-18T00:54:49;4.80;99.90
54461;DHT22;69977;49.414;11.010;2023-11-18T00:57:15;4.70;99.90
54461;DHT22;69977;49.414;11.010;2023-11-18T00:59:42;4.70;99.90
54461;DHT22;69977;49.414;11.010;2023-11-18T01:02:09;4.80;99.90
54461;DHT22;69977;49.414;11.010;2023-11-18T01:04:34;4.70;99.90
54461;DHT22;69977;49.414;11.010;2023-11-18T01:07:00;4.70;99.90
54461;DHT22;69977;49.414;11.010;2023-11-18T01:09:26;4.70;99.90
54461;DHT22;69977;49.414;11.010;2023-11-18T01:11:52;4.70;99.90
54461;DHT22;69977;49.414;11.010;2023-11-18T01:14:18;4.70;99.90
54461;DHT22;69977;49.414;11.010;2023-11-18T01:16:45;4.90;99.90
54461;DHT22;69977;49.414;11.010;2023-11-18T01:19:12;4.80;99.90
54461;DHT22;69977;49.414;11.010;2023-11-18T01:21:38;4.80;99.90
54461;DHT22;69977;49.414;11.010;2023-11-18T01:24:04;4.80;99.90
54461;DHT22;69977;49.414;11.010;2023-11-18T01:26:31;4.80;99.90
54461;DHT22;69977;49.414;11.010;2023-11-18T01:28:57;4.80;99.90
54461;DHT22;69977;49.414;11.010;2023-11-18T01:31:23;4.80;99.90
54461;DHT22;69977;49.414;11.010;2023-11-18T01:33:49;4.50;99.90
54461;DHT22;69977;49.414;11.010;2023-11-18T01:36:15;4.30;99.90
54461;DHT22;69977;49.414;11.010;2023-11-18T01:38:43;4.30;99.90
54461;DHT22;69977;49.414;11.010;2023-11-18T01:41:09;4.20;99.90
54461;DHT22;69977;49.414;11.010;2023-11-18T01:43:34;4.10;99.90
54461;DHT22;69977;49.414;11.010;2023-11-18T01:46:03;4.10;99.90
54461;DHT22;69977;49.414;11.010;2023-11-18T01:48:31;4.00;99.90
54461;DHT22;69977;49.414;11.010;2023-11-18T01:50:59;4.00;99.90
54461;DHT22;69977;49.414;11.010;2023-11-18T01:53:28;4.00;99.90
54461;DHT22;69977;49.414;11.010;2023-11-18T01:55:54;3.90;99.90
54461;DHT22;69977;49.414;11.010;2023-11-18T01:58:20;3.80;99.90
54461;DHT22;69977;49.414;11.010;2023-11-18T02:00:50;3.60;99.90
54461;DHT22;69977;49.414;11.010;2023-11-18T02:03:19;3.40;99.90
54461;DHT22;69977;49.414;11.010;2023-11-18T02:05:46;3.40;99.90
54461;DHT22;69977;49.414;11.010;2023-11-18T02:08:12;3.60;99.90
54461;DHT22;69977;49.414;11.010;2023-11-18T02:10:55;3.50;99.90
54461;DHT22;69977;49.414;11.010;2023-11-18T02:13:24;3.30;99.90
54461;DHT22;69977;49.414;11.010;2023-11-18T02:15:56;3.40;99.90
54461;DHT22;69977;49.414;11.010;2023-11-18T02:18:26;3.60;99.90
54461;DHT22;69977;49.414;11.010;2023-11-18T02:20:57;3.60;99.90
54461;DHT22;69977;49.414;11.010;2023-11-18T02:23:25;3.40;99.90
54461;DHT22;69977;49.414;11.010;2023-11-18T02:25:55;3.10;99.90
54461;DHT22;69977;49.414;11.010;2023-11-18T02:28:23;3.20;99.90
54461;DHT22;69977;49.414;11.010;2023-11-18T02:30:58;3.30;99.90
54461;DHT22;69977;49.414;11.010;2023-11-18T02:33:40;3.20;99.90
54461;DHT22;69977;49.414;11.010;2023-11-18T02:36:37;3.10;99.90
54461;DHT22;69977;49.414;11.010;2023-11-18T02:39:08;2.90;99.90
54461;DHT22;69977;49.414;11.010;2023-11-18T02:41:38;2.90;99.90
54461;DHT22;69977;49.414;11.010;2023-11-18T02:44:05;3.00;99.90
54461;DHT22;69977;49.414;11.010;2023-11-18T02:46:36;2.90;99.90
54461;DHT22;69977;49.414;11.010;2023-11-18T02:49:03;2.80;99.90
54461;DHT22;69977;49.414;11.010;2023-11-18T02:51:29;2.70;99.90
54461;DHT22;69977;49.414;11.010;2023-11-18T02:53:57;2.70;99.90
54461;DHT22;69977;49.414;11.010;2023-11-18T02:56:23;2.70;99.90
54461;DHT22;69977;49.414;11.010;2023-11-18T02:58:49;2.70;99.90
54461;DHT22;69977;49.414;11.010;2023-11-18T03:01:14;2.80;99.90
54461;DHT22;69977;49.414;11.010;2023-11-18T03:03:40;2.70;99.90
54461;DHT22;69977;49.414;11.010;2023-11-18T03:06:08;2.60;99.90
54461;DHT22;69977;49.414;11.010;2023-11-18T03:08:34;2.50;99.90
54461;DHT22;69977;49.414;11.010;2023-11-18T03:11:00;2.50;99.90
54461;DHT22;69977;49.414;11.010;2023-11-18T03:13:26;2.30;99.90
54461;DHT22;69977;49.414;11.010;2023-11-18T03:15:51;2.20;99.90
54461;DHT22;69977;49.414;11.010;2023-11-18T03:18:17;2.10;99.90
54461;DHT22;69977;49.414;11.010;2023-11-18T03:20:43;2.00;99.90
54461;DHT22;69977;49.414;11.010;2023-11-18T03:23:09;2.10;99.90
54461;DHT22;69977;49.414;11.010;2023-11-18T03:25:35;2.20;99.90
54461;DHT22;69977;49.414;11.010;2023-11-18T03:28:01;2.40;99.90
54461;DHT22;69977;49.414;11.010;2023-11-18T03:30:27;2.60;99.90
54461;DHT22;69977;49.414;11.010;2023-11-18T03:32:54;2.60;99.90
54461;DHT22;69977;49.414;11.010;2023-11-18T03:35:20;2.60;99.90
54461;DHT22;69977;49.414;11.010;2023-11-18T03:37:46;2.60;99.90
54461;DHT22;69977;49.414;11.010;2023-11-18T03:40:14;2.50;99.90
54461;DHT22;69977;49.414;11.010;2023-11-18T03:42:41;2.40;99.90
54461;DHT22;69977;49.414;11.010;2023-11-18T03:45:08;2.40;99.90
54461;DHT22;69977;49.414;11.010;2023-11-18T03:47:35;2.40;99.90
54461;DHT22;69977;49.414;11.010;2023-11-18T03:50:01;2.40;99.90
54461;DHT22;69977;49.414;11.010;2023-11-18T03:52:27;2.40;99.90
54461;DHT22;69977;49.414;11.010;2023-11-18T03:54:53;2.40;99.90
54461;DHT22;69977;49.414;11.010;2023-11-18T03:57:21;2.30;99.90
54461;DHT22;69977;49.414;11.010;2023-11-18T03:59:46;2.40;99.90
54461;DHT22;69977;49.414;11.010;2023-11-18T04:02:12;2.50;99.90
54461;DHT22;69977;49.414;11.010;2023-11-18T04:04:39;2.40;99.90
54461;DHT22;69977;49.414;11.010;2023-11-18T04:07:04;2.40;99.90
54461;DHT22;69977;49.414;11.010;2023-11-18T04:09:32;2.30;99.90
54461;DHT22;69977;49.414;11.010;2023-11-18T04:11:58;2.20;99.90
54461;DHT22;69977;49.414;11.010;2023-11-18T04:14:24;2.40;99.90
54461;DHT22;69977;49.414;11.010;2023-11-18T04:16:52;2.50;99.90
54461;DHT22;69977;49.414;11.010;2023-11-18T04:19:19;2.50;99.90
54461;DHT22;69977;49.414;11.010;2023-11-18T04:21:46;2.40;99.90
54461;DHT22;69977;49.414;11.010;2023-11-18T04:24:14;2.30;99.90
54461;DHT22;69977;49.414;11.010;2023-11-18T04:26:40;2.30;99.90
54461;DHT22;69977;49.414;11.010;2023-11-18T04:29:06;2.30;99.90
54461;DHT22;69977;49.414;11.010;2023-11-18T04:31:32;2.30;99.90
54461;DHT22;69977;49.414;11.010;2023-11-18T04:33:59;2.30;99.90
54461;DHT22;69977;49.414;11.010;2023-11-18T04:36:25;2.40;99.90
54461;DHT22;69977;49.414;11.010;2023-11-18T04:38:52;2.50;99.90
54461;DHT22;69977;49.414;11.010;2023-11-18T04:41:18;2.50;99.90
54461;DHT22;69977;49.414;11.010;2023-11-18T04:43:44;2.50;99.90
54461;DHT22;69977;49.414;11.010;2023-11-18T04:46:09;2.50;99.90
54461;DHT22;69977;49.414;11.010;2023-11-18T04:48:36;2.50;99.90
54461;DHT22;69977;49.414;11.010;2023-11-18T04:51:02;2.50;99.90
54461;DHT22;69977;49.414;11.010;2023-11-18T04:53:28;2.60;99.90
54461;DHT22;69977;49.414;11.010;2023-11-18T04:55:53;2.50;99.90
54461;DHT22;69977;49.414;11.010;2023-11-18T04:58:20;2.50;99.90
54461;DHT22;69977;49.414;11.010;2023-11-18T05:00:46;2.40;99.90
54461;DHT22;69977;49.414;11.010;2023-11-18T05:03:13;2.30;99.90
54461;DHT22;69977;49.414;11.010;2023-11-18T05:05:40;2.30;99.90
54461;DHT22;69977;49.414;11.010;2023-11-18T05:08:06;2.30;99.90
54461;DHT22;69977;49.414;11.010;2023-11-18T05:10:33;2.10;99.90
54461;DHT22;69977;49.414;11.010;2023-11-18T05:12:59;1.90;99.90
54461;DHT22;69977;49.414;11.010;2023-11-18T05:15:25;1.70;99.90
54461;DHT22;69977;49.414;11.010;2023-11-18T05:17:54;1.60;99.90
54461;DHT22;69977;49.414;11.010;2023-11-18T05:20:20;1.60;99.90
54461;DHT22;69977;49.414;11.010;2023-11-18T05:22:47;1.60;99.90
54461;DHT22;69977;49.414;11.010;2023-11-18T05:25:12;1.50;99.90
54461;DHT22;69977;49.414;11.010;2023-11-18T05:27:39;1.50;99.90
54461;DHT22;69977;49.414;11.010;2023-11-18T05:30:10;1.50;99.90
54461;DHT22;69977;49.414;11.010;2023-11-18T05:32:36;1.30;99.90
54461;DHT22;69977;49.414;11.010;2023-11-18T05:35:03;1.30;99.90
54461;DHT22;69977;49.414;11.010;2023-11-18T05:37:31;1.30;99.90
54461;DHT22;69977;49.414;11.010;2023-11-18T05:40:02;1.40;99.90
54461;DHT22;69977;49.414;11.010;2023-11-18T05:42:36;1.70;99.90
54461;DHT22;69977;49.414;11.010;2023-11-18T05:45:05;1.70;99.90
54461;DHT22;69977;49.414;11.010;2023-11-18T05:47:35;1.70;99.90
54461;DHT22;69977;49.414;11.010;2023-11-18T05:50:01;1.70;99.90
54461;DHT22;69977;49.414;11.010;2023-11-18T05:52:27;1.70;99.90
54461;DHT22;69977;49.414;11.010;2023-11-18T05:54:53;1.70;99.90
54461;DHT22;69977;49.414;11.010;2023-11-18T05:57:19;1.60;99.90
54461;DHT22;69977;49.414;11.010;2023-11-18T05:59:45;1.60;99.90
54461;DHT22;69977;49.414;11.010;2023-11-18T06:02:13;1.70;99.90
54461;DHT22;69977;49.414;11.010;2023-11-18T06:04:44;1.60;99.90
54461;DHT22;69977;49.414;11.010;2023-11-18T06:07:10;1.70;99.90
54461;DHT22;69977;49.414;11.010;2023-11-18T06:09:40;1.80;99.90
54461;DHT22;69977;49.414;11.010;2023-11-18T06:12:08;1.80;99.90
54461;DHT22;69977;49.414;11.010;2023-11-18T06:14:37;1.90;99.90
54461;DHT22;69977;49.414;11.010;2023-11-18T06:17:03;2.00;99.90
54461;DHT22;69977;49.414;11.010;2023-11-18T06:19:29;2.00;99.90
54461;DHT22;69977;49.414;11.010;2023-11-18T06:21:55;2.00;99.90
54461;DHT22;69977;49.414;11.010;2023-11-18T06:24:21;2.10;99.90
54461;DHT22;69977;49.414;11.010;2023-11-18T06:26:47;2.10;99.90
54461;DHT22;69977;49.414;11.010;2023-11-18T06:29:15;2.20;99.90
54461;DHT22;69977;49.414;11.010;2023-11-18T06:31:41;2.30;99.90
54461;DHT22;69977;49.414;11.010;2023-11-18T06:34:08;2.40;99.90
54461;DHT22;69977;49.414;11.010;2023-11-18T06:36:34;2.30;99.90
54461;DHT22;69977;49.414;11.010;2023-11-18T06:39:00;2.30;99.90
54461;DHT22;69977;49.414;11.010;2023-11-18T06:41:26;2.30;99.90
54461;DHT22;69977;49.414;11.010;2023-11-18T06:43:59;2.30;99.90
54461;DHT22;69977;49.414;11.010;2023-11-18T06:46:34;2.40;99.90
54461;DHT22;69977;49.414;11.010;2023-11-18T06:49:03;2.40;99.90
54461;DHT22;69977;49.414;11.010;2023-11-18T06:51:41;2.40;99.90
54461;DHT22;69977;49.414;11.010;2023-11-18T06:54:07;2.40;99.90
54461;DHT22;69977;49.414;11.010;2023-11-18T06:56:42;2.40;99.90
54461;DHT22;69977;49.414;11.010;2023-11-18T06:59:09;2.50;99.90
54461;DHT22;69977;49.414;11.010;2023-11-18T07:01:38;2.50;99.90
54461;DHT22;69977;49.414;11.010;2023-11-18T07:04:06;2.40;99.90
54461;DHT22;69977;49.414;11.010;2023-11-18T07:06:34;2.40;99.90
54461;DHT22;69977;49.414;11.010;2023-11-18T07:09:07;2.40;99.90
54461;DHT22;69977;49.414;11.010;2023-11-18T07:11:43;2.40;99.90
54461;DHT22;69977;49.414;11.010;2023-11-18T07:14:09;2.40;99.90
54461;DHT22;69977;49.414;11.010;2023-11-18T07:16:38;2.50;99.90
54461;DHT22;69977;49.414;11.010;2023-11-18T07:19:05;2.60;99.90
54461;DHT22;69977;49.414;11.010;2023-11-18T07:21:31;2.50;99.90
54461;DHT22;69977;49.414;11.010;2023-11-18T07:23:56;2.60;99.90
54461;DHT22;69977;49.414;11.010;2023-11-18T07:26:23;2.80;99.90
54461;DHT22;69977;49.414;11.010;2023-11-18T07:28:50;2.80;99.90
54461;DHT22;69977;49.414;11.010;2023-11-18T07:31:15;2.80;99.90
54461;DHT22;69977;49.414;11.010;2023-11-18T07:33:47;2.90;99.90
54461;DHT22;69977;49.414;11.010;2023-11-18T07:36:16;3.00;99.90
54461;DHT22;69977;49.414;11.010;2023-11-18T07:38:42;3.30;99.90
54461;DHT22;69977;49.414;11.010;2023-11-18T07:41:09;3.40;99.90
54461;DHT22;69977;49.414;11.010;2023-11-18T07:43:35;3.30;99.90
54461;DHT22;69977;49.414;11.010;2023-11-18T07:46:06;3.30;99.90
54461;DHT22;69977;49.414;11.010;2023-11-18T07:48:33;3.40;99.90
54461;DHT22;69977;49.414;11.010;2023-11-18T07:50:59;3.50;99.90
54461;DHT22;69977;49.414;11.010;2023-11-18T07:53:25;3.60;99.90
54461;DHT22;69977;49.414;11.010;2023-11-18T07:55:55;3.70;99.90
54461;DHT22;69977;49.414;11.010;2023-11-18T07:58:21;3.80;99.90
54461;DHT22;69977;49.414;11.010;2023-11-18T08:00:49;3.80;99.90
54461;DHT22;69977;49.414;11.010;2023-11-18T08:03:15;3.90;99.90
54461;DHT22;69977;49.414;11.010;2023-11-18T08:05:42;4.00;99.90
54461;DHT22;69977;49.414;11.010;2023-11-18T08:08:12;4.00;99.90
54461;DHT22;69977;49.414;11.010;2023-11-18T08:10:39;4.00;99.90
54461;DHT22;69977;49.414;11.010;2023-11-18T08:13:06;4.20;99.90
54461;DHT22;69977;49.414;11.010;2023-11-18T08:15:37;4.30;99.90
54461;DHT22;69977;49.414;11.010;2023-11-18T08:18:03;4.30;99.90
54461;DHT22;69977;49.414;11.010;2023-11-18T08:20:29;4.40;99.90
54461;DHT22;69977;49.414;11.010;2023-11-18T08:22:56;4.50;99.90
54461;DHT22;69977;49.414;11.010;2023-11-18T08:25:21;4.60;99.90
54461;DHT22;69977;49.414;11.010;2023-11-18T08:27:47;4.70;99.90
54461;DHT22;69977;49.414;11.010;2023-11-18T08:30:13;4.80;99.90
54461;DHT22;69977;49.414;11.010;2023-11-18T08:32:41;4.80;99.90
54461;DHT22;69977;49.414;11.010;2023-11-18T08:35:14;4.80;99.90
54461;DHT22;69977;49.414;11.010;2023-11-18T08:37:43;4.90;99.90
54461;DHT22;69977;49.414;11.010;2023-11-18T08:40:10;5.00;99.90
54461;DHT22;69977;49.414;11.010;2023-11-18T08:42:44;5.00;99.90
54461;DHT22;69977;49.414;11.010;2023-11-18T08:45:22;5.00;99.90
54461;DHT22;69977;49.414;11.010;2023-11-18T08:47:53;5.20;99.90
54461;DHT22;69977;49.414;11.010;2023-11-18T08:50:19;5.10;99.90
54461;DHT22;69977;49.414;11.010;2023-11-18T08:52:47;5.00;99.90
54461;DHT22;69977;49.414;11.010;2023-11-18T08:55:13;5.20;99.90
54461;DHT22;69977;49.414;11.010;2023-11-18T08:57:50;5.20;99.90
54461;DHT22;69977;49.414;11.010;2023-11-18T09:00:30;5.20;99.90
54461;DHT22;69977;49.414;11.010;2023-11-18T09:03:28;5.20;99.90
54461;DHT22;69977;49.414;11.010;2023-11-18T09:06:01;5.30;99.90
54461;DHT22;69977;49.414;11.010;2023-11-18T09:08:35;5.40;99.90
54461;DHT22;69977;49.414;11.010;2023-11-18T09:11:03;5.60;99.90
54461;DHT22;69977;49.414;11.010;2023-11-18T09:13:31;5.60;99.90
54461;DHT22;69977;49.414;11.010;2023-11-18T09:16:01;5.60;99.90
54461;DHT22;69977;49.414;11.010;2023-11-18T09:18:33;5.60;99.90
54461;DHT22;69977;49.414;11.010;2023-11-18T09:21:03;5.80;99.90
54461;DHT22;69977;49.414;11.010;2023-11-18T09:23:31;5.70;99.90
54461;DHT22;69977;49.414;11.010;2023-11-18T09:26:04;5.90;99.90
54461;DHT22;69977;49.414;11.010;2023-11-18T09:28:34;6.00;99.90
54461;DHT22;69977;49.414;11.010;2023-11-18T09:31:07;6.20;99.90
54461;DHT22;69977;49.414;11.010;2023-11-18T09:33:38;6.30;99.90
54461;DHT22;69977;49.414;11.010;2023-11-18T09:36:08;6.30;99.90
54461;DHT22;69977;49.414;11.010;2023-11-18T09:38:41;6.30;99.90
54461;DHT22;69977;49.414;11.010;2023-11-18T09:41:08;6.20;99.90
54461;DHT22;69977;49.414;11.010;2023-11-18T09:43:40;6.00;99.90
54461;DHT22;69977;49.414;11.010;2023-11-18T09:46:16;6.20;99.90
54461;DHT22;69977;49.414;11.010;2023-11-18T09:48:48;6.20;99.90
54461;DHT22;69977;49.414;11.010;2023-11-18T09:51:29;6.10;99.90
54461;DHT22;69977;49.414;11.010;2023-11-18T09:54:04;6.20;99.90
54461;DHT22;69977;49.414;11.010;2023-11-18T09:56:45;6.30;99.90
54461;DHT22;69977;49.414;11.010;2023-11-18T09:59:32;6.60;99.90
54461;DHT22;69977;49.414;11.010;2023-11-18T10:02:03;6.60;99.90
54461;DHT22;69977;49.414;11.010;2023-11-18T10:04:33;6.60;99.90
54461;DHT22;69977;49.414;11.010;2023-11-18T10:07:01;6.70;99.90
54461;DHT22;69977;49.414;11.010;2023-11-18T10:09:28;6.80;99.90
54461;DHT22;69977;49.414;11.010;2023-11-18T10:11:55;6.90;99.90
54461;DHT22;69977;49.414;11.010;2023-11-18T10:14:29;6.90;99.90
54461;DHT22;69977;49.414;11.010;2023-11-18T10:16:55;6.80;99.90
54461;DHT22;69977;49.414;11.010;2023-11-18T10:19:21;6.80;99.90
54461;DHT22;69977;49.414;11.010;2023-11-18T10:21:50;6.60;99.90
54461;DHT22;69977;49.414;11.010;2023-11-18T10:24:15;6.70;99.90
54461;DHT22;69977;49.414;11.010;2023-11-18T10:26:46;6.80;99.90
54461;DHT22;69977;49.414;11.010;2023-11-18T10:29:19;6.70;99.90
54461;DHT22;69977;49.414;11.010;2023-11-18T10:31:45;6.90;99.90
54461;DHT22;69977;49.414;11.010;2023-11-18T10:34:14;6.90;99.90
54461;DHT22;69977;49.414;11.010;2023-11-18T10:37:00;7.00;99.90
54461;DHT22;69977;49.414;11.010;2023-11-18T10:39:31;7.20;99.90
54461;DHT22;69977;49.414;11.010;2023-11-18T10:42:01;7.10;99.90
54461;DHT22;69977;49.414;11.010;2023-11-18T10:44:28;7.40;99.90
54461;DHT22;69977;49.414;11.010;2023-11-18T10:46:55;7.50;99.90
54461;DHT22;69977;49.414;11.010;2023-11-18T10:49:30;7.70;99.90
54461;DHT22;69977;49.414;11.010;2023-11-18T10:52:02;7.80;99.90
54461;DHT22;69977;49.414;11.010;2023-11-18T10:54:33;7.90;99.90
54461;DHT22;69977;49.414;11.010;2023-11-18T10:57:01;7.90;99.90
54461;DHT22;69977;49.414;11.010;2023-11-18T10:59:33;8.00;99.90
54461;DHT22;69977;49.414;11.010;2023-11-18T11:01:58;8.00;99.90
54461;DHT22;69977;49.414;11.010;2023-11-18T11:04:24;8.20;99.90
54461;DHT22;69977;49.414;11.010;2023-11-18T11:06:50;8.10;99.90
54461;DHT22;69977;49.414;11.010;2023-11-18T11:09:20;8.20;99.90
54461;DHT22;69977;49.414;11.010;2023-11-18T11:11:57;8.20;99.90
54461;DHT22;69977;49.414;11.010;2023-11-18T11:14:37;8.50;99.90
54461;DHT22;69977;49.414;11.010;2023-11-18T11:17:07;8.60;99.90
54461;DHT22;69977;49.414;11.010;2023-11-18T11:28:17;8.60;99.90
54461;DHT22;69977;49.414;11.010;2023-11-18T11:30:50;8.40;99.90
54461;DHT22;69977;49.414;11.010;2023-11-18T11:33:43;8.30;99.90
54461;DHT22;69977;49.414;11.010;2023-11-18T11:36:15;8.30;99.90
54461;DHT22;69977;49.414;11.010;2023-11-18T11:38:43;8.40;99.90
54461;DHT22;69977;49.414;11.010;2023-11-18T11:41:13;8.30;99.90
54461;DHT22;69977;49.414;11.010;2023-11-18T11:43:48;8.30;99.90
54461;DHT22;69977;49.414;11.010;2023-11-18T11:46:15;8.30;99.90
54461;DHT22;69977;49.414;11.010;2023-11-18T11:48:50;8.20;99.90
54461;DHT22;69977;49.414;11.010;2023-11-18T11:51:26;8.40;99.90
54461;DHT22;69977;49.414;11.010;2023-11-18T11:56:42;8.60;99.90
54461;DHT22;69977;49.414;11.010;2023-11-18T11:59:09;8.60;99.90
54461;DHT22;69977;49.414;11.010;2023-11-18T12:01:38;8.70;99.90
54461;DHT22;69977;49.414;11.010;2023-11-18T12:04:24;8.50;99.90
54461;DHT22;69977;49.414;11.010;2023-11-18T12:06:54;8.40;99.90
54461;DHT22;69977;49.414;11.010;2023-11-18T12:09:22;8.50;99.90
54461;DHT22;69977;49.414;11.010;2023-11-18T12:11:48;8.60;99.90
54461;DHT22;69977;49.414;11.010;2023-11-18T12:14:15;8.60;99.90
54461;DHT22;69977;49.414;11.010;2023-11-18T12:17:05;8.70;99.90
54461;DHT22;69977;49.414;11.010;2023-11-18T12:19:37;8.60;99.90
54461;DHT22;69977;49.414;11.010;2023-11-18T12:22:22;8.50;99.90
54461;DHT22;69977;49.414;11.010;2023-11-18T12:33:04;8.60;99.90
54461;DHT22;69977;49.414;11.010;2023-11-18T12:41:01;8.50;99.90
54461;DHT22;69977;49.414;11.010;2023-11-18T12:43:46;8.60;99.90
54461;DHT22;69977;49.414;11.010;2023-11-18T12:49:14;8.60;99.90
54461;DHT22;69977;49.414;11.010;2023-11-18T12:51:45;8.60;99.90
54461;DHT22;69977;49.414;11.010;2023-11-18T12:54:11;8.70;99.90
54461;DHT22;69977;49.414;11.010;2023-11-18T12:56:38;8.60;99.90
54461;DHT22;69977;49.414;11.010;2023-11-18T12:59:05;8.60;99.90
54461;DHT22;69977;49.414;11.010;2023-11-18T13:01:34;8.70;99.90
54461;DHT22;69977;49.414;11.010;2023-11-18T13:04:05;8.60;99.90
54461;DHT22;69977;49.414;11.010;2023-11-18T13:06:30;8.70;99.90
54461;DHT22;69977;49.414;11.010;2023-11-18T13:08:56;8.40;99.90
54461;DHT22;69977;49.414;11.010;2023-11-18T13:11:23;8.50;99.90
54461;DHT22;69977;49.414;11.010;2023-11-18T13:13:52;8.50;99.90
54461;DHT22;69977;49.414;11.010;2023-11-18T13:16:19;8.50;99.90
54461;DHT22;69977;49.414;11.010;2023-11-18T13:18:46;8.60;99.90
54461;DHT22;69977;49.414;11.010;2023-11-18T13:21:19;8.50;99.90
54461;DHT22;69977;49.414;11.010;2023-11-18T13:23:49;8.50;99.90
54461;DHT22;69977;49.414;11.010;2023-11-18T13:26:19;8.40;99.90
54461;DHT22;69977;49.414;11.010;2023-11-18T13:28:48;8.30;99.90
54461;DHT22;69977;49.414;11.010;2023-11-18T13:31:15;8.40;99.90
54461;DHT22;69977;49.414;11.010;2023-11-18T13:33:43;8.30;99.90
54461;DHT22;69977;49.414;11.010;2023-11-18T13:36:09;8.40;99.90
54461;DHT22;69977;49.414;11.010;2023-11-18T13:38:38;8.40;99.90
54461;DHT22;69977;49.414;11.010;2023-11-18T13:41:05;8.40;99.90
54461;DHT22;69977;49.414;11.010;2023-11-18T13:43:46;8.50;99.90
54461;DHT22;69977;49.414;11.010;2023-11-18T13:46:17;8.40;99.90
54461;DHT22;69977;49.414;11.010;2023-11-18T13:48:49;8.40;99.90
54461;DHT22;69977;49.414;11.010;2023-11-18T13:51:16;8.30;99.90
54461;DHT22;69977;49.414;11.010;2023-11-18T13:53:43;8.30;99.90
54461;DHT22;69977;49.414;11.010;2023-11-18T13:56:10;8.40;99.90
54461;DHT22;69977;49.414;11.010;2023-11-18T13:58:38;8.20;99.90
54461;DHT22;69977;49.414;11.010;2023-11-18T14:01:08;8.20;99.90
54461;DHT22;69977;49.414;11.010;2023-11-18T14:03:35;8.20;99.90
54461;DHT22;69977;49.414;11.010;2023-11-18T14:06:07;8.20;99.90
54461;DHT22;69977;49.414;11.010;2023-11-18T14:08:37;8.20;99.90
54461;DHT22;69977;49.414;11.010;2023-11-18T14:11:03;8.20;99.90
54461;DHT22;69977;49.414;11.010;2023-11-18T14:13:31;8.10;99.90
54461;DHT22;69977;49.414;11.010;2023-11-18T14:15:58;8.10;99.90
54461;DHT22;69977;49.414;11.010;2023-11-18T14:18:25;8.10;99.90
54461;DHT22;69977;49.414;11.010;2023-11-18T14:20:51;8.10;99.90
54461;DHT22;69977;49.414;11.010;2023-11-18T14:23:17;8.10;99.90
54461;DHT22;69977;49.414;11.010;2023-11-18T14:25:44;7.90;99.90
54461;DHT22;69977;49.414;11.010;2023-11-18T14:28:11;7.90;99.90
54461;DHT22;69977;49.414;11.010;2023-11-18T14:30:38;7.90;99.90
54461;DHT22;69977;49.414;11.010;2023-11-18T14:33:04;7.90;99.90
54461;DHT22;69977;49.414;11.010;2023-11-18T14:35:30;7.80;99.90
54461;DHT22;69977;49.414;11.010;2023-11-18T14:37:55;7.80;99.90
54461;DHT22;69977;49.414;11.010;2023-11-18T14:40:24;7.80;99.90
54461;DHT22;69977;49.414;11.010;2023-11-18T14:42:50;7.80;99.90
54461;DHT22;69977;49.414;11.010;2023-11-18T14:45:17;7.70;99.90
54461;DHT22;69977;49.414;11.010;2023-11-18T14:47:43;7.60;99.90
54461;DHT22;69977;49.414;11.010;2023-11-18T14:50:22;7.70;99.90
54461;DHT22;69977;49.414;11.010;2023-11-18T14:52:50;7.80;99.90
54461;DHT22;69977;49.414;11.010;2023-11-18T14:55:17;7.60;99.90
54461;DHT22;69977;49.414;11.010;2023-11-18T14:57:44;7.50;99.90
54461;DHT22;69977;49.414;11.010;2023-11-18T15:00:13;7.50;99.90
54461;DHT22;69977;49.414;11.010;2023-11-18T15:02:48;7.50;99.90
54461;DHT22;69977;49.414;11.010;2023-11-18T15:05:18;7.40;99.90
54461;DHT22;69977;49.414;11.010;2023-11-18T15:07:54;7.40;99.90
54461;DHT22;69977;49.414;11.010;2023-11-18T15:10:22;7.30;99.90
54461;DHT22;69977;49.414;11.010;2023-11-18T15:12:49;7.20;99.90
54461;DHT22;69977;49.414;11.010;2023-11-18T15:15:22;7.10;99.90
54461;DHT22;69977;49.414;11.010;2023-11-18T15:17:49;7.20;99.90
54461;DHT22;69977;49.414;11.010;2023-11-18T15:20:16;7.10;99.90
54461;DHT22;69977;49.414;11.010;2023-11-18T15:22:44;7.10;99.90
54461;DHT22;69977;49.414;11.010;2023-11-18T15:25:11;7.20;99.90
54461;DHT22;69977;49.414;11.010;2023-11-18T15:27:41;7.10;99.90
54461;DHT22;69977;49.414;11.010;2023-11-18T15:30:09;7.10;99.90
54461;DHT22;69977;49.414;11.010;2023-11-18T15:32:41;7.10;99.90
54461;DHT22;69977;49.414;11.010;2023-11-18T15:35:08;7.10;99.90
54461;DHT22;69977;49.414;11.010;2023-11-18T15:37:36;7.00;99.90
54461;DHT22;69977;49.414;11.010;2023-11-18T15:40:03;7.00;99.90
54461;DHT22;69977;49.414;11.010;2023-11-18T15:42:43;7.20;99.90
54461;DHT22;69977;49.414;11.010;2023-11-18T15:45:13;7.10;99.90
54461;DHT22;69977;49.414;11.010;2023-11-18T15:47:41;7.10;99.90
54461;DHT22;69977;49.414;11.010;2023-11-18T15:50:11;7.00;99.90
54461;DHT22;69977;49.414;11.010;2023-11-18T15:52:47;7.00;99.90
54461;DHT22;69977;49.414;11.010;2023-11-18T15:55:13;7.00;99.90
54461;DHT22;69977;49.414;11.010;2023-11-18T15:57:41;7.00;99.90
54461;DHT22;69977;49.414;11.010;2023-11-18T16:00:08;6.90;99.90
54461;DHT22;69977;49.414;11.010;2023-11-18T16:02:47;6.90;99.90
54461;DHT22;69977;49.414;11.010;2023-11-18T16:05:16;6.90;99.90
54461;DHT22;69977;49.414;11.010;2023-11-18T16:07:49;6.90;99.90